This is the latest recevied weather packets stored in our database for station/object K4IR. If no packets are shown the sender has not sent any weather packets the latest 10 day(s).
| Time | Temp. | Humidity | Pressure | Rain* | Wind** | Luminosity | Snow |
|---|---|---|---|---|---|---|---|
| 1777769212 | 12.22° C | 97% | 1011.8 hPa | 0 mm | - | 0 W/m² | - |
| 1777768608 | 12.78° C | 98% | 1011.7 hPa | 0 mm | - | 0 W/m² | - |
| 1777768007 | 12.78° C | 98% | 1011.5 hPa | 0 mm | - | 0 W/m² | - |
| 1777767405 | 12.78° C | 98% | 1011.3 hPa | 0 mm | - | 0 W/m² | - |
| 1777766801 | 12.78° C | 98% | 1011.3 hPa | 0 mm | - | 0 W/m² | - |
| 1777766199 | 12.78° C | 98% | 1011.2 hPa | 0 mm | - | 1 W/m² | - |
| 1777765599 | 12.78° C | 97% | 1011.2 hPa | 0 mm | - | 3 W/m² | - |
| 1777764998 | 12.78° C | 97% | 1011 hPa | 0 mm | - | 5 W/m² | - |
| 1777764397 | 12.78° C | 98% | 1010.8 hPa | 0 mm | - | 8 W/m² | - |
| 1777763797 | 12.78° C | 98% | 1010.9 hPa | 0 mm | - | 14 W/m² | - |
| 1777763193 | 12.78° C | 98% | 1010.7 hPa | 0 mm | - | 29 W/m² | - |
| 1777762592 | 13.33° C | 98% | 1010.7 hPa | 0 mm | - | 34 W/m² | - |
| 1777761992 | 13.33° C | 98% | 1010.5 hPa | 0 mm | - | 34 W/m² | - |
| 1777761393 | 12.78° C | 98% | 1010.7 hPa | 0 mm | - | 39 W/m² | - |
| 1777760788 | 12.78° C | 98% | 1010.8 hPa | 0 mm | - | 37 W/m² | - |
| 1777760186 | 13.33° C | 98% | 1010.5 hPa | 0 mm | - | 52 W/m² | - |
| 1777759585 | 13.33° C | 98% | 1010.6 hPa | 1.27 mm | - | 49 W/m² | - |
| 1777758985 | 13.33° C | 98% | 1010.1 hPa | 0.51 mm | - | 51 W/m² | - |
| 1777758385 | 13.33° C | 98% | 1010.2 hPa | 0.51 mm | - | 40 W/m² | - |
| 1777757779 | 13.33° C | 98% | 1010 hPa | 1.27 mm | - | 36 W/m² | - |
| 1777757175 | 13.33° C | 97% | 1009.9 hPa | 3.05 mm | - | 77 W/m² | - |
| 1777756574 | 13.33° C | 97% | 1010.4 hPa | 2.29 mm | - | 56 W/m² | - |
| 1777755975 | 13.33° C | 97% | 1010.2 hPa | 0 mm | - | 34 W/m² | - |
| 1777755374 | 13.33° C | 97% | 1009.9 hPa | 0.51 mm | - | 23 W/m² | - |
| 1777754774 | 13.33° C | 97% | 1009.8 hPa | 0.51 mm | - | 65 W/m² | - |
* Rain latest hour (hover to see other rain measurements)
** Current wind speed in m/s (hover to see current wind gust speed)